Aviation weather information 2022-05-16 19:38 UTC

TAF(FCEO32)
FCEO32 EETN 161400 AAA
TAF AMD EEKE 161800Z 1615/1621 CNL=

TAF(FTEO31)
FTEO31 EETN 161700
TAF EETN 161730Z 1618/1718 29013KT 9999 SCT030 TEMPO 1618/1622
     SCT025CB TEMPO 1706/1713 34016G27KT=

TAF(FTEO33)
FTEO33 EEEI 161700
TAF EEEI 161730Z 1618/1718 32010KT CAVOK TEMPO 1618/1622 7000
     SHRA SCT015 FEW025TCU TEMPO 1704/1710 01015G25KT TEMPO 1708/1715
     BKN015= 

Weather observation (METAR/SPECI)
METAR EETN 161920Z 34006KT 9999 FEW030CB SCT048 09/04 Q1015 NOSIG=
METAR EEEI 161850Z 30008KT CAVOK 08/03 Q1015 NOSIG=
METAR EETU 161920Z AUTO 28009KT 260V320 9999 SCT059/// BKN086///
10/01 Q1013=
METAR EEPU 161920Z AUTO 28007KT 9999 NCD 07/03 Q1016=
METAR EEKE 161920Z AUTO 32008KT 270V360 9999NDV NCD 06/00 Q1019=
METAR EEKA 161920Z NIL=